Almont, Colorado
Current Conditions -  °F | °C
As of 12:35 PM on Saturday 25 Oct 2014 (Local Time) from KGUC Reporting Station
Clear Clear  
Wind Chill: 54°   Ceiling: Unl
Heat Index: 54°   Visibility: 10mi
Dew Point: 25°   Wind: 3mph
Humidity: 33%   Direction: 190°S
Pressure: 30.43"   Gusts: NA
Location:  38.66°N, 106.85°W
Report Text: KGUC 251835Z AUTO 19003KT 10SM CLR 12/M04 A3043 RMK AO1
Loading
Personal Weather Stations






























Interactive Weather Map
Tropical Storm Tracking
New forecast layout! Learn more

10-Day Weather Forecast

Advertisements
Track Severe Weather on mobile